sensor_id;sensor_type;location;lat;lon;timestamp;P1;durP1;ratioP1;P2;durP2;ratioP2
9334;SDS011;4706;41.844;26.082;2023-08-01T00:00:31;9.18;;;8.35;;
9334;SDS011;4706;41.844;26.082;2023-08-01T00:02:57;9.80;;;8.90;;
9334;SDS011;4706;41.844;26.082;2023-08-01T00:05:23;9.80;;;8.85;;
9334;SDS011;4706;41.844;26.082;2023-08-01T00:07:48;10.05;;;9.05;;
9334;SDS011;4706;41.844;26.082;2023-08-01T00:10:14;9.90;;;8.68;;
9334;SDS011;4706;41.844;26.082;2023-08-01T00:12:41;9.15;;;8.07;;
9334;SDS011;4706;41.844;26.082;2023-08-01T00:15:07;8.68;;;7.88;;
9334;SDS011;4706;41.844;26.082;2023-08-01T00:17:33;8.48;;;7.68;;
9334;SDS011;4706;41.844;26.082;2023-08-01T00:20:00;8.45;;;7.75;;
9334;SDS011;4706;41.844;26.082;2023-08-01T00:22:27;7.82;;;7.22;;
9334;SDS011;4706;41.844;26.082;2023-08-01T00:24:52;7.90;;;7.30;;
9334;SDS011;4706;41.844;26.082;2023-08-01T00:27:17;7.10;;;6.60;;
9334;SDS011;4706;41.844;26.082;2023-08-01T00:29:43;7.53;;;6.90;;
9334;SDS011;4706;41.844;26.082;2023-08-01T00:32:09;7.15;;;6.65;;
9334;SDS011;4706;41.844;26.082;2023-08-01T00:34:34;7.53;;;7.03;;
9334;SDS011;4706;41.844;26.082;2023-08-01T00:37:00;7.57;;;7.03;;
9334;SDS011;4706;41.844;26.082;2023-08-01T00:39:25;7.72;;;7.13;;
9334;SDS011;4706;41.844;26.082;2023-08-01T00:41:51;7.25;;;6.65;;
9334;SDS011;4706;41.844;26.082;2023-08-01T00:44:17;7.85;;;7.25;;
9334;SDS011;4706;41.844;26.082;2023-08-01T00:46:42;6.75;;;6.25;;
9334;SDS011;4706;41.844;26.082;2023-08-01T00:49:08;7.35;;;6.75;;
9334;SDS011;4706;41.844;26.082;2023-08-01T00:51:33;7.43;;;6.72;;
9334;SDS011;4706;41.844;26.082;2023-08-01T00:53:59;7.57;;;7.07;;
9334;SDS011;4706;41.844;26.082;2023-08-01T00:56:25;7.32;;;6.70;;
9334;SDS011;4706;41.844;26.082;2023-08-01T00:58:51;8.00;;;7.40;;
9334;SDS011;4706;41.844;26.082;2023-08-01T01:01:16;7.82;;;7.13;;
9334;SDS011;4706;41.844;26.082;2023-08-01T01:03:42;7.55;;;6.95;;
9334;SDS011;4706;41.844;26.082;2023-08-01T01:06:31;7.53;;;6.93;;
9334;SDS011;4706;41.844;26.082;2023-08-01T01:08:58;8.02;;;7.43;;
9334;SDS011;4706;41.844;26.082;2023-08-01T01:11:24;7.43;;;6.82;;
9334;SDS011;4706;41.844;26.082;2023-08-01T01:13:49;11.70;;;10.70;;
9334;SDS011;4706;41.844;26.082;2023-08-01T01:16:18;8.35;;;7.55;;
9334;SDS011;4706;41.844;26.082;2023-08-01T01:18:44;7.93;;;7.22;;
9334;SDS011;4706;41.844;26.082;2023-08-01T01:21:10;8.38;;;7.68;;
9334;SDS011;4706;41.844;26.082;2023-08-01T01:23:35;8.15;;;7.35;;
9334;SDS011;4706;41.844;26.082;2023-08-01T01:26:02;9.07;;;8.20;;
9334;SDS011;4706;41.844;26.082;2023-08-01T01:28:31;8.35;;;7.70;;
9334;SDS011;4706;41.844;26.082;2023-08-01T01:30:58;8.68;;;7.90;;
9334;SDS011;4706;41.844;26.082;2023-08-01T01:33:24;8.13;;;7.53;;
9334;SDS011;4706;41.844;26.082;2023-08-01T01:35:50;8.35;;;7.75;;
9334;SDS011;4706;41.844;26.082;2023-08-01T01:38:15;9.10;;;8.40;;
9334;SDS011;4706;41.844;26.082;2023-08-01T01:40:42;8.38;;;7.78;;
9334;SDS011;4706;41.844;26.082;2023-08-01T01:43:07;9.63;;;8.80;;
9334;SDS011;4706;41.844;26.082;2023-08-01T01:45:33;8.65;;;8.05;;
9334;SDS011;4706;41.844;26.082;2023-08-01T01:47:58;9.05;;;8.25;;
9334;SDS011;4706;41.844;26.082;2023-08-01T01:50:23;7.97;;;7.28;;
9334;SDS011;4706;41.844;26.082;2023-08-01T01:52:49;8.52;;;7.82;;
9334;SDS011;4706;41.844;26.082;2023-08-01T01:55:14;8.07;;;7.38;;
9334;SDS011;4706;41.844;26.082;2023-08-01T01:57:40;8.88;;;8.07;;
9334;SDS011;4706;41.844;26.082;2023-08-01T02:00:06;7.82;;;7.07;;
9334;SDS011;4706;41.844;26.082;2023-08-01T02:02:35;9.70;;;8.68;;
9334;SDS011;4706;41.844;26.082;2023-08-01T02:05:01;8.10;;;7.50;;
9334;SDS011;4706;41.844;26.082;2023-08-01T02:07:29;8.43;;;7.63;;
9334;SDS011;4706;41.844;26.082;2023-08-01T02:09:55;8.82;;;7.93;;
9334;SDS011;4706;41.844;26.082;2023-08-01T02:12:20;9.48;;;8.57;;
9334;SDS011;4706;41.844;26.082;2023-08-01T02:14:46;9.10;;;8.25;;
9334;SDS011;4706;41.844;26.082;2023-08-01T02:17:11;9.18;;;8.00;;
9334;SDS011;4706;41.844;26.082;2023-08-01T02:19:37;9.00;;;8.20;;
9334;SDS011;4706;41.844;26.082;2023-08-01T02:22:02;8.90;;;8.02;;
9334;SDS011;4706;41.844;26.082;2023-08-01T02:24:28;8.88;;;8.15;;
9334;SDS011;4706;41.844;26.082;2023-08-01T02:26:53;9.52;;;8.68;;
9334;SDS011;4706;41.844;26.082;2023-08-01T02:29:19;8.60;;;7.80;;
9334;SDS011;4706;41.844;26.082;2023-08-01T02:31:44;9.20;;;8.45;;
9334;SDS011;4706;41.844;26.082;2023-08-01T02:34:10;9.77;;;8.70;;
9334;SDS011;4706;41.844;26.082;2023-08-01T02:36:35;9.18;;;8.30;;
9334;SDS011;4706;41.844;26.082;2023-08-01T02:39:01;8.82;;;8.23;;
9334;SDS011;4706;41.844;26.082;2023-08-01T02:41:26;8.48;;;7.88;;
9334;SDS011;4706;41.844;26.082;2023-08-01T02:43:51;8.52;;;7.72;;
9334;SDS011;4706;41.844;26.082;2023-08-01T02:46:17;8.48;;;7.85;;
9334;SDS011;4706;41.844;26.082;2023-08-01T02:48:42;8.73;;;7.93;;
9334;SDS011;4706;41.844;26.082;2023-08-01T02:51:08;9.20;;;8.30;;
9334;SDS011;4706;41.844;26.082;2023-08-01T02:53:36;9.02;;;8.32;;
9334;SDS011;4706;41.844;26.082;2023-08-01T02:56:02;8.20;;;7.50;;
9334;SDS011;4706;41.844;26.082;2023-08-01T02:58:29;8.18;;;7.50;;
9334;SDS011;4706;41.844;26.082;2023-08-01T03:00:55;8.00;;;7.40;;
9334;SDS011;4706;41.844;26.082;2023-08-01T03:03:21;8.20;;;7.57;;
9334;SDS011;4706;41.844;26.082;2023-08-01T03:05:47;8.60;;;7.90;;
9334;SDS011;4706;41.844;26.082;2023-08-01T03:08:12;8.75;;;8.13;;
9334;SDS011;4706;41.844;26.082;2023-08-01T03:10:38;9.63;;;8.10;;
9334;SDS011;4706;41.844;26.082;2023-08-01T03:13:04;8.93;;;8.23;;
9334;SDS011;4706;41.844;26.082;2023-08-01T03:15:30;9.68;;;8.82;;
9334;SDS011;4706;41.844;26.082;2023-08-01T03:17:55;9.27;;;8.55;;
9334;SDS011;4706;41.844;26.082;2023-08-01T03:20:21;9.48;;;8.55;;
9334;SDS011;4706;41.844;26.082;2023-08-01T03:22:47;10.32;;;9.52;;
9334;SDS011;4706;41.844;26.082;2023-08-01T03:25:13;9.63;;;8.82;;
9334;SDS011;4706;41.844;26.082;2023-08-01T03:27:39;9.38;;;8.68;;
9334;SDS011;4706;41.844;26.082;2023-08-01T03:30:04;9.63;;;8.40;;
9334;SDS011;4706;41.844;26.082;2023-08-01T03:32:34;9.43;;;8.52;;
9334;SDS011;4706;41.844;26.082;2023-08-01T03:35:03;9.25;;;8.55;;
9334;SDS011;4706;41.844;26.082;2023-08-01T03:37:30;9.48;;;8.35;;
9334;SDS011;4706;41.844;26.082;2023-08-01T03:39:55;9.10;;;8.27;;
9334;SDS011;4706;41.844;26.082;2023-08-01T03:42:21;8.20;;;7.45;;
9334;SDS011;4706;41.844;26.082;2023-08-01T03:44:46;9.68;;;8.55;;
9334;SDS011;4706;41.844;26.082;2023-08-01T03:47:12;8.43;;;7.75;;
9334;SDS011;4706;41.844;26.082;2023-08-01T03:49:37;8.63;;;7.82;;
9334;SDS011;4706;41.844;26.082;2023-08-01T03:52:04;8.98;;;8.27;;
9334;SDS011;4706;41.844;26.082;2023-08-01T03:54:30;11.52;;;8.93;;
9334;SDS011;4706;41.844;26.082;2023-08-01T03:56:56;8.68;;;7.90;;
9334;SDS011;4706;41.844;26.082;2023-08-01T03:59:21;9.48;;;8.68;;
9334;SDS011;4706;41.844;26.082;2023-08-01T04:01:47;10.18;;;9.15;;
9334;SDS011;4706;41.844;26.082;2023-08-01T04:04:13;10.00;;;9.20;;
9334;SDS011;4706;41.844;26.082;2023-08-01T04:06:38;10.18;;;8.85;;
9334;SDS011;4706;41.844;26.082;2023-08-01T04:09:04;10.38;;;9.38;;
9334;SDS011;4706;41.844;26.082;2023-08-01T04:11:31;14.30;;;9.82;;
9334;SDS011;4706;41.844;26.082;2023-08-01T04:13:57;10.35;;;9.45;;
9334;SDS011;4706;41.844;26.082;2023-08-01T04:16:22;11.07;;;9.93;;
9334;SDS011;4706;41.844;26.082;2023-08-01T04:18:48;10.68;;;9.65;;
9334;SDS011;4706;41.844;26.082;2023-08-01T04:21:14;13.82;;;9.95;;
9334;SDS011;4706;41.844;26.082;2023-08-01T04:23:40;10.50;;;9.32;;
9334;SDS011;4706;41.844;26.082;2023-08-01T04:26:05;12.52;;;9.90;;
9334;SDS011;4706;41.844;26.082;2023-08-01T04:28:31;13.38;;;10.15;;
9334;SDS011;4706;41.844;26.082;2023-08-01T04:30:57;12.00;;;9.60;;
9334;SDS011;4706;41.844;26.082;2023-08-01T04:33:23;10.35;;;9.45;;
9334;SDS011;4706;41.844;26.082;2023-08-01T04:35:48;12.27;;;10.43;;
9334;SDS011;4706;41.844;26.082;2023-08-01T04:38:14;11.40;;;10.00;;
9334;SDS011;4706;41.844;26.082;2023-08-01T04:40:40;11.23;;;10.20;;
9334;SDS011;4706;41.844;26.082;2023-08-01T04:43:05;11.75;;;10.48;;
9334;SDS011;4706;41.844;26.082;2023-08-01T04:45:31;13.63;;;11.00;;
9334;SDS011;4706;41.844;26.082;2023-08-01T04:47:56;12.55;;;11.35;;
9334;SDS011;4706;41.844;26.082;2023-08-01T04:50:22;14.90;;;11.48;;
9334;SDS011;4706;41.844;26.082;2023-08-01T04:52:48;11.10;;;10.20;;
9334;SDS011;4706;41.844;26.082;2023-08-01T04:55:13;11.57;;;10.63;;
9334;SDS011;4706;41.844;26.082;2023-08-01T04:57:39;11.25;;;10.15;;
9334;SDS011;4706;41.844;26.082;2023-08-01T05:00:05;11.05;;;10.10;;
9334;SDS011;4706;41.844;26.082;2023-08-01T05:02:31;11.73;;;10.60;;
9334;SDS011;4706;41.844;26.082;2023-08-01T05:04:56;11.43;;;10.32;;
9334;SDS011;4706;41.844;26.082;2023-08-01T05:07:22;19.05;;;11.55;;
9334;SDS011;4706;41.844;26.082;2023-08-01T05:09:47;13.38;;;11.40;;
9334;SDS011;4706;41.844;26.082;2023-08-01T05:12:13;11.50;;;10.57;;
9334;SDS011;4706;41.844;26.082;2023-08-01T05:14:38;12.63;;;11.43;;
9334;SDS011;4706;41.844;26.082;2023-08-01T05:17:04;12.32;;;11.32;;
9334;SDS011;4706;41.844;26.082;2023-08-01T05:19:30;12.20;;;10.98;;
9334;SDS011;4706;41.844;26.082;2023-08-01T05:21:55;14.50;;;13.30;;
9334;SDS011;4706;41.844;26.082;2023-08-01T05:24:21;11.82;;;10.93;;
9334;SDS011;4706;41.844;26.082;2023-08-01T05:26:47;12.85;;;11.65;;
9334;SDS011;4706;41.844;26.082;2023-08-01T05:29:13;11.93;;;10.95;;
9334;SDS011;4706;41.844;26.082;2023-08-01T05:31:38;12.45;;;11.40;;
9334;SDS011;4706;41.844;26.082;2023-08-01T05:34:04;12.45;;;11.35;;
9334;SDS011;4706;41.844;26.082;2023-08-01T05:36:29;16.55;;;12.35;;
9334;SDS011;4706;41.844;26.082;2023-08-01T05:38:55;13.52;;;12.32;;
9334;SDS011;4706;41.844;26.082;2023-08-01T05:41:21;13.23;;;12.13;;
9334;SDS011;4706;41.844;26.082;2023-08-01T05:43:48;16.13;;;14.55;;
9334;SDS011;4706;41.844;26.082;2023-08-01T05:46:14;13.13;;;12.02;;
9334;SDS011;4706;41.844;26.082;2023-08-01T05:48:39;12.60;;;11.50;;
9334;SDS011;4706;41.844;26.082;2023-08-01T05:51:05;12.35;;;11.45;;
9334;SDS011;4706;41.844;26.082;2023-08-01T05:53:30;11.85;;;11.00;;
9334;SDS011;4706;41.844;26.082;2023-08-01T05:55:56;11.52;;;10.60;;
9334;SDS011;4706;41.844;26.082;2023-08-01T05:58:22;11.45;;;10.65;;
9334;SDS011;4706;41.844;26.082;2023-08-01T06:00:48;12.50;;;11.27;;
9334;SDS011;4706;41.844;26.082;2023-08-01T06:03:13;11.70;;;10.77;;
9334;SDS011;4706;41.844;26.082;2023-08-01T06:05:39;12.13;;;11.23;;
9334;SDS011;4706;41.844;26.082;2023-08-01T06:08:06;11.27;;;10.13;;
9334;SDS011;4706;41.844;26.082;2023-08-01T06:10:32;11.05;;;10.25;;
9334;SDS011;4706;41.844;26.082;2023-08-01T06:12:57;12.10;;;11.00;;
9334;SDS011;4706;41.844;26.082;2023-08-01T06:15:23;11.32;;;10.23;;
9334;SDS011;4706;41.844;26.082;2023-08-01T06:17:48;10.77;;;9.75;;
9334;SDS011;4706;41.844;26.082;2023-08-01T06:20:14;10.80;;;9.63;;
9334;SDS011;4706;41.844;26.082;2023-08-01T06:22:39;10.90;;;9.90;;
9334;SDS011;4706;41.844;26.082;2023-08-01T06:25:05;11.65;;;10.65;;
9334;SDS011;4706;41.844;26.082;2023-08-01T06:27:31;11.32;;;10.25;;
9334;SDS011;4706;41.844;26.082;2023-08-01T06:29:56;12.80;;;11.60;;
9334;SDS011;4706;41.844;26.082;2023-08-01T06:32:22;11.23;;;10.18;;
9334;SDS011;4706;41.844;26.082;2023-08-01T06:34:47;10.00;;;9.10;;
9334;SDS011;4706;41.844;26.082;2023-08-01T06:37:13;10.50;;;9.68;;
9334;SDS011;4706;41.844;26.082;2023-08-01T06:39:38;10.00;;;9.10;;
9334;SDS011;4706;41.844;26.082;2023-08-01T06:42:04;10.50;;;9.50;;
9334;SDS011;4706;41.844;26.082;2023-08-01T06:44:29;10.38;;;9.38;;
9334;SDS011;4706;41.844;26.082;2023-08-01T06:46:55;10.98;;;9.10;;
9334;SDS011;4706;41.844;26.082;2023-08-01T06:49:20;12.10;;;11.00;;
9334;SDS011;4706;41.844;26.082;2023-08-01T06:51:46;11.50;;;10.50;;
9334;SDS011;4706;41.844;26.082;2023-08-01T06:54:11;12.18;;;10.32;;
9334;SDS011;4706;41.844;26.082;2023-08-01T06:56:37;10.95;;;9.88;;
9334;SDS011;4706;41.844;26.082;2023-08-01T06:59:02;10.55;;;9.75;;
9334;SDS011;4706;41.844;26.082;2023-08-01T07:01:28;10.80;;;9.80;;
9334;SDS011;4706;41.844;26.082;2023-08-01T07:03:53;11.43;;;9.43;;
9334;SDS011;4706;41.844;26.082;2023-08-01T07:06:19;9.95;;;9.05;;
9334;SDS011;4706;41.844;26.082;2023-08-01T07:08:44;9.45;;;8.63;;
9334;SDS011;4706;41.844;26.082;2023-08-01T07:11:10;10.38;;;9.48;;
9334;SDS011;4706;41.844;26.082;2023-08-01T07:13:35;9.73;;;8.80;;
9334;SDS011;4706;41.844;26.082;2023-08-01T07:16:01;41.20;;;11.70;;
9334;SDS011;4706;41.844;26.082;2023-08-01T07:18:26;9.90;;;9.00;;
9334;SDS011;4706;41.844;26.082;2023-08-01T07:21:01;16.27;;;10.18;;
9334;SDS011;4706;41.844;26.082;2023-08-01T07:23:33;11.68;;;10.77;;
9334;SDS011;4706;41.844;26.082;2023-08-01T07:26:00;10.10;;;9.30;;
9334;SDS011;4706;41.844;26.082;2023-08-01T07:28:25;9.40;;;8.60;;
9334;SDS011;4706;41.844;26.082;2023-08-01T07:33:26;9.75;;;8.95;;
9334;SDS011;4706;41.844;26.082;2023-08-01T07:35:52;8.73;;;8.02;;
9334;SDS011;4706;41.844;26.082;2023-08-01T07:38:18;8.90;;;8.20;;
9334;SDS011;4706;41.844;26.082;2023-08-01T07:40:43;9.20;;;8.40;;
9334;SDS011;4706;41.844;26.082;2023-08-01T07:43:08;10.45;;;7.88;;
9334;SDS011;4706;41.844;26.082;2023-08-01T07:45:34;9.18;;;8.23;;
9334;SDS011;4706;41.844;26.082;2023-08-01T07:48:00;8.88;;;8.02;;
9334;SDS011;4706;41.844;26.082;2023-08-01T07:50:26;15.30;;;8.93;;
9334;SDS011;4706;41.844;26.082;2023-08-01T07:52:51;7.78;;;7.07;;
9334;SDS011;4706;41.844;26.082;2023-08-01T07:55:16;8.32;;;7.72;;
9334;SDS011;4706;41.844;26.082;2023-08-01T07:57:43;11.90;;;7.85;;
9334;SDS011;4706;41.844;26.082;2023-08-01T08:00:10;7.50;;;6.80;;
9334;SDS011;4706;41.844;26.082;2023-08-01T08:02:36;7.88;;;7.13;;
9334;SDS011;4706;41.844;26.082;2023-08-01T08:05:01;10.65;;;7.45;;
9334;SDS011;4706;41.844;26.082;2023-08-01T08:07:27;6.72;;;6.30;;
9334;SDS011;4706;41.844;26.082;2023-08-01T08:09:52;7.63;;;7.03;;
9334;SDS011;4706;41.844;26.082;2023-08-01T08:12:20;7.00;;;6.50;;
9334;SDS011;4706;41.844;26.082;2023-08-01T08:14:46;6.90;;;6.38;;
9334;SDS011;4706;41.844;26.082;2023-08-01T08:17:12;6.57;;;6.07;;
9334;SDS011;4706;41.844;26.082;2023-08-01T08:19:38;6.40;;;5.90;;
9334;SDS011;4706;41.844;26.082;2023-08-01T08:22:04;7.18;;;6.57;;
9334;SDS011;4706;41.844;26.082;2023-08-01T08:24:30;10.95;;;10.02;;
9334;SDS011;4706;41.844;26.082;2023-08-01T08:26:55;9.20;;;8.32;;
9334;SDS011;4706;41.844;26.082;2023-08-01T08:29:21;7.25;;;6.75;;
9334;SDS011;4706;41.844;26.082;2023-08-01T08:31:47;7.63;;;6.93;;
9334;SDS011;4706;41.844;26.082;2023-08-01T08:34:12;7.22;;;6.57;;
9334;SDS011;4706;41.844;26.082;2023-08-01T08:36:38;8.02;;;7.38;;
9334;SDS011;4706;41.844;26.082;2023-08-01T08:39:04;8.18;;;7.43;;
9334;SDS011;4706;41.844;26.082;2023-08-01T08:41:30;6.80;;;6.22;;
9334;SDS011;4706;41.844;26.082;2023-08-01T08:44:01;7.10;;;6.60;;
9334;SDS011;4706;41.844;26.082;2023-08-01T08:46:31;8.50;;;7.75;;
9334;SDS011;4706;41.844;26.082;2023-08-01T08:49:04;5.97;;;5.47;;
9334;SDS011;4706;41.844;26.082;2023-08-01T08:51:30;6.07;;;5.55;;
9334;SDS011;4706;41.844;26.082;2023-08-01T08:53:56;7.10;;;5.40;;
9334;SDS011;4706;41.844;26.082;2023-08-01T08:56:22;6.18;;;5.78;;
9334;SDS011;4706;41.844;26.082;2023-08-01T08:58:48;5.80;;;5.40;;
9334;SDS011;4706;41.844;26.082;2023-08-01T09:01:14;5.63;;;5.00;;
9334;SDS011;4706;41.844;26.082;2023-08-01T09:03:42;5.50;;;5.00;;
9334;SDS011;4706;41.844;26.082;2023-08-01T09:06:11;4.80;;;4.50;;
9334;SDS011;4706;41.844;26.082;2023-08-01T09:08:44;5.55;;;5.05;;
9334;SDS011;4706;41.844;26.082;2023-08-01T09:11:17;5.32;;;5.00;;
9334;SDS011;4706;41.844;26.082;2023-08-01T09:13:43;5.53;;;5.13;;
9334;SDS011;4706;41.844;26.082;2023-08-01T09:16:09;4.72;;;4.32;;
9334;SDS011;4706;41.844;26.082;2023-08-01T09:18:35;5.15;;;4.75;;
9334;SDS011;4706;41.844;26.082;2023-08-01T09:21:12;4.90;;;4.60;;
9334;SDS011;4706;41.844;26.082;2023-08-01T09:23:37;5.20;;;4.80;;
9334;SDS011;4706;41.844;26.082;2023-08-01T09:26:16;5.47;;;5.07;;
9334;SDS011;4706;41.844;26.082;2023-08-01T09:28:43;5.00;;;4.60;;
9334;SDS011;4706;41.844;26.082;2023-08-01T09:31:09;4.72;;;4.43;;
9334;SDS011;4706;41.844;26.082;2023-08-01T09:33:40;5.10;;;4.70;;
9334;SDS011;4706;41.844;26.082;2023-08-01T09:36:07;5.25;;;4.75;;
9334;SDS011;4706;41.844;26.082;2023-08-01T09:38:37;4.82;;;4.50;;
9334;SDS011;4706;41.844;26.082;2023-08-01T09:41:03;4.60;;;4.30;;
9334;SDS011;4706;41.844;26.082;2023-08-01T09:43:36;5.20;;;4.80;;
9334;SDS011;4706;41.844;26.082;2023-08-01T09:46:02;5.32;;;5.00;;
9334;SDS011;4706;41.844;26.082;2023-08-01T09:48:29;5.30;;;5.00;;
9334;SDS011;4706;41.844;26.082;2023-08-01T09:53:34;5.25;;;4.85;;
9334;SDS011;4706;41.844;26.082;2023-08-01T09:56:01;5.63;;;5.15;;
9334;SDS011;4706;41.844;26.082;2023-08-01T09:58:31;6.65;;;5.00;;
9334;SDS011;4706;41.844;26.082;2023-08-01T10:00:59;4.43;;;4.13;;
9334;SDS011;4706;41.844;26.082;2023-08-01T10:03:29;6.30;;;4.70;;
9334;SDS011;4706;41.844;26.082;2023-08-01T10:05:55;4.95;;;4.60;;
9334;SDS011;4706;41.844;26.082;2023-08-01T10:08:22;4.82;;;4.43;;
9334;SDS011;4706;41.844;26.082;2023-08-01T10:10:48;5.00;;;4.60;;
9334;SDS011;4706;41.844;26.082;2023-08-01T10:13:14;4.75;;;4.35;;
9334;SDS011;4706;41.844;26.082;2023-08-01T10:15:40;4.97;;;4.40;;
9334;SDS011;4706;41.844;26.082;2023-08-01T10:18:06;4.35;;;4.05;;
9334;SDS011;4706;41.844;26.082;2023-08-01T10:20:33;5.13;;;4.68;;
9334;SDS011;4706;41.844;26.082;2023-08-01T10:23:01;5.30;;;4.97;;
9334;SDS011;4706;41.844;26.082;2023-08-01T10:25:28;5.80;;;5.30;;
9334;SDS011;4706;41.844;26.082;2023-08-01T10:27:59;5.00;;;4.65;;
9334;SDS011;4706;41.844;26.082;2023-08-01T10:30:26;5.20;;;4.80;;
9334;SDS011;4706;41.844;26.082;2023-08-01T10:32:54;4.93;;;4.60;;
9334;SDS011;4706;41.844;26.082;2023-08-01T10:35:31;4.72;;;4.32;;
9334;SDS011;4706;41.844;26.082;2023-08-01T10:38:03;5.10;;;4.70;;
9334;SDS011;4706;41.844;26.082;2023-08-01T10:40:47;5.82;;;5.28;;
9334;SDS011;4706;41.844;26.082;2023-08-01T10:43:19;6.10;;;5.15;;
9334;SDS011;4706;41.844;26.082;2023-08-01T10:45:46;5.40;;;4.90;;
9334;SDS011;4706;41.844;26.082;2023-08-01T10:48:12;5.30;;;4.80;;
9334;SDS011;4706;41.844;26.082;2023-08-01T10:50:37;4.72;;;4.40;;
9334;SDS011;4706;41.844;26.082;2023-08-01T10:53:04;4.60;;;4.30;;
9334;SDS011;4706;41.844;26.082;2023-08-01T10:55:38;5.28;;;4.88;;
9334;SDS011;4706;41.844;26.082;2023-08-01T10:58:08;5.25;;;4.90;;
9334;SDS011;4706;41.844;26.082;2023-08-01T11:00:34;5.30;;;4.80;;
9334;SDS011;4706;41.844;26.082;2023-08-01T11:02:59;5.28;;;4.97;;
9334;SDS011;4706;41.844;26.082;2023-08-01T11:05:25;6.30;;;5.70;;
9334;SDS011;4706;41.844;26.082;2023-08-01T11:07:56;5.80;;;5.40;;
9334;SDS011;4706;41.844;26.082;2023-08-01T11:10:25;5.32;;;4.93;;
9334;SDS011;4706;41.844;26.082;2023-08-01T11:12:52;5.20;;;4.78;;
9334;SDS011;4706;41.844;26.082;2023-08-01T11:15:21;5.00;;;4.60;;
9334;SDS011;4706;41.844;26.082;2023-08-01T11:17:48;4.95;;;4.60;;
9334;SDS011;4706;41.844;26.082;2023-08-01T11:20:23;5.28;;;4.88;;
9334;SDS011;4706;41.844;26.082;2023-08-01T11:22:59;4.72;;;4.43;;
9334;SDS011;4706;41.844;26.082;2023-08-01T11:28:00;5.10;;;4.80;;
9334;SDS011;4706;41.844;26.082;2023-08-01T11:30:32;5.45;;;5.05;;
9334;SDS011;4706;41.844;26.082;2023-08-01T11:32:58;4.90;;;4.50;;
9334;SDS011;4706;41.844;26.082;2023-08-01T11:35:24;5.25;;;4.85;;
9334;SDS011;4706;41.844;26.082;2023-08-01T11:37:50;5.30;;;4.90;;
9334;SDS011;4706;41.844;26.082;2023-08-01T11:40:17;5.50;;;5.00;;
9334;SDS011;4706;41.844;26.082;2023-08-01T11:42:47;5.63;;;4.93;;
9334;SDS011;4706;41.844;26.082;2023-08-01T11:45:16;5.95;;;5.47;;
9334;SDS011;4706;41.844;26.082;2023-08-01T11:47:45;5.68;;;5.18;;
9334;SDS011;4706;41.844;26.082;2023-08-01T11:50:12;5.45;;;5.05;;
9334;SDS011;4706;41.844;26.082;2023-08-01T11:52:37;5.22;;;4.82;;
9334;SDS011;4706;41.844;26.082;2023-08-01T11:55:03;5.50;;;5.10;;
9334;SDS011;4706;41.844;26.082;2023-08-01T11:57:29;5.35;;;5.05;;
9334;SDS011;4706;41.844;26.082;2023-08-01T11:59:55;5.20;;;4.90;;
9334;SDS011;4706;41.844;26.082;2023-08-01T12:02:27;6.63;;;5.15;;
9334;SDS011;4706;41.844;26.082;2023-08-01T12:04:57;5.40;;;5.10;;
9334;SDS011;4706;41.844;26.082;2023-08-01T12:07:26;5.88;;;5.38;;
9334;SDS011;4706;41.844;26.082;2023-08-01T12:09:58;5.47;;;5.03;;
9334;SDS011;4706;41.844;26.082;2023-08-01T12:12:28;6.10;;;5.60;;
9334;SDS011;4706;41.844;26.082;2023-08-01T12:14:54;5.68;;;4.90;;
9334;SDS011;4706;41.844;26.082;2023-08-01T12:17:20;5.50;;;5.10;;
9334;SDS011;4706;41.844;26.082;2023-08-01T12:19:47;4.90;;;4.60;;
9334;SDS011;4706;41.844;26.082;2023-08-01T12:22:12;5.70;;;5.30;;
9334;SDS011;4706;41.844;26.082;2023-08-01T12:24:39;4.70;;;4.40;;
9334;SDS011;4706;41.844;26.082;2023-08-01T12:27:06;5.50;;;5.10;;
9334;SDS011;4706;41.844;26.082;2023-08-01T12:29:32;5.80;;;5.40;;
9334;SDS011;4706;41.844;26.082;2023-08-01T12:31:58;5.25;;;4.85;;
9334;SDS011;4706;41.844;26.082;2023-08-01T12:34:23;5.15;;;4.85;;
9334;SDS011;4706;41.844;26.082;2023-08-01T12:36:49;5.53;;;5.00;;
9334;SDS011;4706;41.844;26.082;2023-08-01T12:39:14;6.20;;;5.70;;
9334;SDS011;4706;41.844;26.082;2023-08-01T12:41:39;5.45;;;5.05;;
9334;SDS011;4706;41.844;26.082;2023-08-01T12:44:05;5.75;;;5.35;;
9334;SDS011;4706;41.844;26.082;2023-08-01T12:46:31;6.00;;;5.50;;
9334;SDS011;4706;41.844;26.082;2023-08-01T12:48:57;5.15;;;4.75;;
9334;SDS011;4706;41.844;26.082;2023-08-01T12:51:22;5.38;;;4.97;;
9334;SDS011;4706;41.844;26.082;2023-08-01T12:53:48;5.38;;;4.88;;
9334;SDS011;4706;41.844;26.082;2023-08-01T12:56:13;5.72;;;5.25;;
9334;SDS011;4706;41.844;26.082;2023-08-01T12:58:39;6.07;;;5.60;;
9334;SDS011;4706;41.844;26.082;2023-08-01T13:01:05;5.60;;;5.20;;
9334;SDS011;4706;41.844;26.082;2023-08-01T13:03:31;5.65;;;5.22;;
9334;SDS011;4706;41.844;26.082;2023-08-01T13:05:56;6.00;;;5.50;;
9334;SDS011;4706;41.844;26.082;2023-08-01T13:08:23;5.00;;;4.70;;
9334;SDS011;4706;41.844;26.082;2023-08-01T13:10:48;5.90;;;5.50;;
9334;SDS011;4706;41.844;26.082;2023-08-01T13:13:15;6.25;;;5.75;;
9334;SDS011;4706;41.844;26.082;2023-08-01T13:15:41;6.28;;;5.78;;
9334;SDS011;4706;41.844;26.082;2023-08-01T13:18:09;6.13;;;5.60;;
9334;SDS011;4706;41.844;26.082;2023-08-01T13:20:35;5.50;;;5.10;;
9334;SDS011;4706;41.844;26.082;2023-08-01T13:23:01;5.95;;;5.47;;
9334;SDS011;4706;41.844;26.082;2023-08-01T13:25:27;6.28;;;5.80;;
9334;SDS011;4706;41.844;26.082;2023-08-01T13:27:53;5.15;;;4.85;;
9334;SDS011;4706;41.844;26.082;2023-08-01T13:30:18;6.00;;;5.60;;
9334;SDS011;4706;41.844;26.082;2023-08-01T13:32:44;5.47;;;5.07;;
9334;SDS011;4706;41.844;26.082;2023-08-01T13:35:13;7.13;;;6.53;;
9334;SDS011;4706;41.844;26.082;2023-08-01T13:37:39;5.03;;;4.72;;
9334;SDS011;4706;41.844;26.082;2023-08-01T13:40:05;5.68;;;5.28;;
9334;SDS011;4706;41.844;26.082;2023-08-01T13:42:31;10.50;;;9.57;;
9334;SDS011;4706;41.844;26.082;2023-08-01T13:44:57;5.88;;;5.40;;
9334;SDS011;4706;41.844;26.082;2023-08-01T13:47:22;7.10;;;6.50;;
9334;SDS011;4706;41.844;26.082;2023-08-01T13:49:48;8.48;;;7.68;;
9334;SDS011;4706;41.844;26.082;2023-08-01T13:52:13;8.27;;;7.57;;
9334;SDS011;4706;41.844;26.082;2023-08-01T13:54:39;5.65;;;5.15;;
9334;SDS011;4706;41.844;26.082;2023-08-01T13:57:05;5.55;;;5.07;;
9334;SDS011;4706;41.844;26.082;2023-08-01T13:59:31;5.40;;;4.90;;
9334;SDS011;4706;41.844;26.082;2023-08-01T14:01:56;5.43;;;5.03;;
9334;SDS011;4706;41.844;26.082;2023-08-01T14:04:22;6.63;;;6.13;;
9334;SDS011;4706;41.844;26.082;2023-08-01T14:06:47;14.27;;;12.63;;
9334;SDS011;4706;41.844;26.082;2023-08-01T14:09:13;8.18;;;6.72;;
9334;SDS011;4706;41.844;26.082;2023-08-01T14:11:39;7.03;;;6.43;;
9334;SDS011;4706;41.844;26.082;2023-08-01T14:14:04;5.70;;;5.22;;
9334;SDS011;4706;41.844;26.082;2023-08-01T14:16:30;5.95;;;5.47;;
9334;SDS011;4706;41.844;26.082;2023-08-01T14:18:56;5.20;;;4.90;;
9334;SDS011;4706;41.844;26.082;2023-08-01T14:21:23;6.93;;;6.32;;
9334;SDS011;4706;41.844;26.082;2023-08-01T14:23:48;4.90;;;4.60;;
9334;SDS011;4706;41.844;26.082;2023-08-01T14:26:14;5.25;;;4.93;;
9334;SDS011;4706;41.844;26.082;2023-08-01T14:28:39;5.85;;;5.30;;
9334;SDS011;4706;41.844;26.082;2023-08-01T14:31:05;6.07;;;5.38;;
9334;SDS011;4706;41.844;26.082;2023-08-01T14:33:30;5.30;;;4.90;;
9334;SDS011;4706;41.844;26.082;2023-08-01T14:35:56;4.65;;;4.35;;
9334;SDS011;4706;41.844;26.082;2023-08-01T14:38:22;5.25;;;4.85;;
9334;SDS011;4706;41.844;26.082;2023-08-01T14:40:48;5.63;;;5.13;;
9334;SDS011;4706;41.844;26.082;2023-08-01T14:43:14;5.30;;;4.90;;
9334;SDS011;4706;41.844;26.082;2023-08-01T14:45:40;5.45;;;5.05;;
9334;SDS011;4706;41.844;26.082;2023-08-01T14:48:06;6.00;;;5.53;;
9334;SDS011;4706;41.844;26.082;2023-08-01T14:50:32;5.53;;;5.13;;
9334;SDS011;4706;41.844;26.082;2023-08-01T14:52:59;5.78;;;5.30;;
9334;SDS011;4706;41.844;26.082;2023-08-01T14:55:25;5.93;;;5.18;;
9334;SDS011;4706;41.844;26.082;2023-08-01T14:57:50;5.20;;;4.90;;